Time;durP1;ratioP1;P1;durP2;ratioP2;P2;SDS_P1;SDS_P2;PMS_P1;PMS_P2;Temp;Humidity;BMP_temperature;BMP_pressure;BME280_temperature;BME280_humidity;BME280_pressure;Samples;Min_cycle;Max_cycle;Signal;HPM_P1;HPM_P2
2022/10/31 00:01:46;;;;;;;;;;;22.90;99.90;;;;;;4210963;28;19928;-68
2022/10/31 00:03:52;;;;;;;;;;;23.00;99.90;;;;;;4192985;28;20023;-68
2022/10/31 00:05:56;;;;;;;;;;;22.90;99.90;;;;;;4211967;28;20465;-69
2022/10/31 00:08:00;;;;;;;;;;;23.00;99.90;;;;;;4210995;28;19982;-70
2022/10/31 00:10:07;;;;;;;;;;;23.00;99.90;;;;;;4211728;28;19924;-69
2022/10/31 00:12:11;;;;;;;;;;;23.00;99.90;;;;;;4212066;28;19985;-69
2022/10/31 00:14:21;;;;;;;;;;;23.10;99.90;;;;;;4210842;28;19948;-70
2022/10/31 00:16:28;;;;;;;;;;;23.10;99.90;;;;;;4209631;28;19928;-69
2022/10/31 00:18:33;;;;;;;;;;;23.20;99.90;;;;;;4211695;28;19928;-69
2022/10/31 00:20:41;;;;;;;;;;;23.10;99.90;;;;;;4211508;28;19977;-69
2022/10/31 00:22:48;;;;;;;;;;;23.20;99.90;;;;;;4208727;28;19924;-68
2022/10/31 00:24:53;;;;;;;;;;;23.30;99.90;;;;;;4211271;28;19924;-69
2022/10/31 00:27:01;;;;;;;;;;;23.30;99.90;;;;;;4211727;28;20394;-69
2022/10/31 00:29:06;;;;;;;;;;;23.30;99.90;;;;;;4211217;28;19932;-70
2022/10/31 00:31:19;;;;;;;;;;;23.30;99.90;;;;;;4210330;28;19962;-69
2022/10/31 00:33:29;;;;;;;;;;;23.40;99.90;;;;;;4208651;28;19983;-69
2022/10/31 00:35:34;;;;;;;;;;;23.40;99.90;;;;;;4210839;28;19935;-69
2022/10/31 00:37:46;;;;;;;;;;;23.50;99.90;;;;;;4210238;28;20390;-68
2022/10/31 00:39:51;;;;;;;;;;;23.60;99.90;;;;;;4212133;28;20573;-68
2022/10/31 00:42:02;;;;;;;;;;;23.50;99.90;;;;;;4211625;28;19947;-69
2022/10/31 00:44:14;;;;;;;;;;;23.60;99.90;;;;;;4209371;28;19930;-69
2022/10/31 00:46:24;;;;;;;;;;;23.70;99.90;;;;;;4210773;28;19927;-69
2022/10/31 00:48:30;;;;;;;;;;;23.70;99.90;;;;;;4212424;28;19925;-68
2022/10/31 00:50:36;;;;;;;;;;;23.80;99.90;;;;;;4211929;28;20165;-69
2022/10/31 00:52:42;;;;;;;;;;;24.00;99.90;;;;;;4194747;28;19974;-69
2022/10/31 00:54:48;;;;;;;;;;;24.00;99.90;;;;;;4212173;28;19928;-70
2022/10/31 00:56:54;;;;;;;;;;;24.10;99.90;;;;;;4211880;28;20371;-70
2022/10/31 00:59:05;;;;;;;;;;;24.10;99.90;;;;;;4202544;28;19928;-70
2022/10/31 01:01:17;;;;;;;;;;;24.10;99.90;;;;;;4195653;28;20354;-71
2022/10/31 01:03:26;;;;;;;;;;;24.10;99.90;;;;;;4211146;28;19935;-71
2022/10/31 01:05:34;;;;;;;;;;;24.20;99.90;;;;;;4211208;28;19928;-71
2022/10/31 01:07:44;;;;;;;;;;;24.30;99.90;;;;;;4208389;28;19924;-69
2022/10/31 01:09:51;;;;;;;;;;;24.40;99.90;;;;;;4193971;28;19928;-69
2022/10/31 01:11:58;;;;;;;;;;;24.50;99.90;;;;;;4208528;28;20485;-69
2022/10/31 01:14:05;;;;;;;;;;;24.50;99.90;;;;;;4210726;28;19928;-70
2022/10/31 01:16:11;;;;;;;;;;;24.50;99.90;;;;;;4211084;28;20398;-69
2022/10/31 01:18:18;;;;;;;;;;;24.50;99.90;;;;;;4218558;28;19932;-69
2022/10/31 01:20:25;;;;;;;;;;;24.60;99.90;;;;;;4209466;28;19935;-69
2022/10/31 01:22:32;;;;;;;;;;;24.80;99.90;;;;;;4211811;28;20015;-69
2022/10/31 01:24:43;;;;;;;;;;;24.70;99.90;;;;;;4209575;28;19924;-70
2022/10/31 01:26:51;;;;;;;;;;;24.70;99.90;;;;;;4210741;28;19982;-69
2022/10/31 01:28:58;;;;;;;;;;;24.70;99.90;;;;;;4209239;28;19974;-70
2022/10/31 01:31:06;;;;;;;;;;;24.80;99.90;;;;;;4222267;28;19927;-70
2022/10/31 01:33:13;;;;;;;;;;;24.90;99.90;;;;;;4208985;28;19928;-70
2022/10/31 01:35:33;;;;;;;;;;;25.00;99.90;;;;;;4209801;28;19932;-70
2022/10/31 01:37:42;;;;;;;;;;;25.00;99.90;;;;;;4208719;28;20018;-70
2022/10/31 01:39:49;;;;;;;;;;;25.10;99.90;;;;;;4211678;28;19935;-69
2022/10/31 01:42:04;;;;;;;;;;;25.10;99.90;;;;;;4210013;28;20015;-70
2022/10/31 01:44:15;;;;;;;;;;;25.20;99.80;;;;;;4211206;28;20344;-70
2022/10/31 01:46:31;;;;;;;;;;;25.30;99.90;;;;;;4208924;28;19932;-69
2022/10/31 01:48:36;;;;;;;;;;;25.40;99.50;;;;;;4209736;28;20014;-71
2022/10/31 01:50:49;;;;;;;;;;;25.40;99.40;;;;;;4209808;28;19981;-70
2022/10/31 01:52:57;;;;;;;;;;;25.50;99.20;;;;;;4210750;28;19935;-70
2022/10/31 01:55:05;;;;;;;;;;;25.50;98.80;;;;;;4223772;28;20377;-70
2022/10/31 01:57:12;;;;;;;;;;;25.50;98.60;;;;;;4198694;28;20444;-69
2022/10/31 01:59:24;;;;;;;;;;;25.60;98.30;;;;;;4209639;28;20378;-70
2022/10/31 02:01:35;;;;;;;;;;;25.60;98.00;;;;;;4209159;28;19974;-70
2022/10/31 02:03:43;;;;;;;;;;;25.70;98.40;;;;;;4207264;28;19963;-70
2022/10/31 02:05:48;;;;;;;;;;;25.80;98.10;;;;;;4208949;28;19974;-69
2022/10/31 02:08:16;;;;;;;;;;;25.80;97.80;;;;;;4193489;28;19932;-71
2022/10/31 02:10:35;;;;;;;;;;;25.80;97.90;;;;;;4210170;28;19943;-70
2022/10/31 02:12:45;;;;;;;;;;;26.00;98.30;;;;;;4209555;28;20019;-70
2022/10/31 02:14:51;;;;;;;;;;;26.00;98.20;;;;;;4209612;28;20467;-70
2022/10/31 02:16:57;;;;;;;;;;;26.10;97.80;;;;;;4234947;28;20382;-69
2022/10/31 02:19:09;;;;;;;;;;;26.10;97.20;;;;;;4205975;28;19932;-70
2022/10/31 02:21:18;;;;;;;;;;;26.10;96.80;;;;;;4194394;28;19983;-69
2022/10/31 02:23:26;;;;;;;;;;;26.10;96.70;;;;;;4190794;28;19924;-70
2022/10/31 02:25:45;;;;;;;;;;;26.10;96.60;;;;;;4209675;28;19928;-70
2022/10/31 02:27:49;;;;;;;;;;;26.20;97.10;;;;;;4209132;28;19928;-69
2022/10/31 02:29:58;;;;;;;;;;;26.20;95.70;;;;;;4208734;28;19931;-71
2022/10/31 02:32:12;;;;;;;;;;;26.10;96.00;;;;;;4210947;28;20018;-70
2022/10/31 02:34:19;;;;;;;;;;;26.10;96.50;;;;;;4243222;28;20408;-69
2022/10/31 02:36:40;;;;;;;;;;;26.20;96.40;;;;;;4209500;28;20374;-69
2022/10/31 02:38:56;;;;;;;;;;;26.40;96.30;;;;;;4215728;28;19935;-69
2022/10/31 02:41:21;;;;;;;;;;;26.40;96.60;;;;;;4216297;28;20356;-69
2022/10/31 02:43:36;;;;;;;;;;;26.60;96.50;;;;;;4199651;28;20394;-69
2022/10/31 02:45:56;;;;;;;;;;;26.60;96.40;;;;;;4207728;28;20426;-69
2022/10/31 02:48:11;;;;;;;;;;;26.60;96.50;;;;;;4237812;27;19928;-69
2022/10/31 02:50:19;;;;;;;;;;;26.60;95.80;;;;;;4223301;28;19934;-69
2022/10/31 02:52:30;;;;;;;;;;;26.60;96.10;;;;;;4213934;28;19977;-69
2022/10/31 02:54:42;;;;;;;;;;;26.40;95.90;;;;;;4220587;28;20459;-69
2022/10/31 02:56:49;;;;;;;;;;;26.60;96.50;;;;;;4213782;28;20402;-69
2022/10/31 02:59:00;;;;;;;;;;;26.80;95.30;;;;;;4212535;28;19966;-70
2022/10/31 03:01:25;;;;;;;;;;;26.80;94.90;;;;;;4221449;28;19924;-69
2022/10/31 03:03:42;;;;;;;;;;;27.00;95.10;;;;;;4238930;27;19974;-69
2022/10/31 03:06:11;;;;;;;;;;;27.20;94.90;;;;;;4212686;28;19935;-69
2022/10/31 03:08:29;;;;;;;;;;;27.10;94.50;;;;;;4212612;28;19924;-69
2022/10/31 03:10:40;;;;;;;;;;;27.00;94.80;;;;;;4238251;27;19927;-69
2022/10/31 03:13:05;;;;;;;;;;;27.10;94.90;;;;;;4212549;28;20015;-69
2022/10/31 03:15:19;;;;;;;;;;;27.20;94.60;;;;;;4187055;28;19974;-69
2022/10/31 03:17:34;;;;;;;;;;;27.30;94.60;;;;;;4194241;28;19932;-69
2022/10/31 03:19:43;;;;;;;;;;;27.30;94.90;;;;;;4220040;28;20019;-69
2022/10/31 03:22:07;;;;;;;;;;;27.30;94.90;;;;;;4237044;27;19936;-69
2022/10/31 03:24:14;;;;;;;;;;;27.30;94.70;;;;;;4236384;27;20446;-68
2022/10/31 03:26:21;;;;;;;;;;;27.40;94.40;;;;;;4210111;28;19935;-68
2022/10/31 03:28:36;;;;;;;;;;;27.40;94.20;;;;;;4212430;28;20022;-69
2022/10/31 03:30:44;;;;;;;;;;;27.50;94.40;;;;;;4213736;28;19928;-69
2022/10/31 03:32:51;;;;;;;;;;;27.70;94.20;;;;;;4212769;28;20332;-69
2022/10/31 03:34:57;;;;;;;;;;;27.70;93.80;;;;;;4229515;28;19928;-68
2022/10/31 03:37:10;;;;;;;;;;;27.70;93.80;;;;;;4228491;28;19928;-68
2022/10/31 03:39:18;;;;;;;;;;;27.80;93.00;;;;;;4228786;28;20539;-68
2022/10/31 03:41:24;;;;;;;;;;;27.80;92.70;;;;;;4228364;28;19951;-69
2022/10/31 03:43:36;;;;;;;;;;;27.80;92.60;;;;;;4196726;28;20391;-69
2022/10/31 03:45:45;;;;;;;;;;;27.90;92.50;;;;;;4195614;28;20398;-69
2022/10/31 03:47:49;;;;;;;;;;;28.00;92.80;;;;;;4212754;28;19928;-69
2022/10/31 03:49:57;;;;;;;;;;;28.10;92.60;;;;;;4195890;28;19955;-71
2022/10/31 03:52:27;;;;;;;;;;;28.10;91.70;;;;;;4213666;28;20544;-67
2022/10/31 03:54:43;;;;;;;;;;;28.10;91.30;;;;;;4250383;27;20457;-70
2022/10/31 03:56:52;;;;;;;;;;;28.30;91.70;;;;;;4235345;27;20009;-71
2022/10/31 03:59:01;;;;;;;;;;;28.50;92.00;;;;;;4216797;28;19928;-69
2022/10/31 04:01:06;;;;;;;;;;;28.50;91.30;;;;;;4202722;28;20015;-68
2022/10/31 04:03:32;;;;;;;;;;;28.40;90.90;;;;;;4205598;28;19958;-68
2022/10/31 04:05:40;;;;;;;;;;;28.30;90.40;;;;;;4212029;28;19932;-68
2022/10/31 04:07:45;;;;;;;;;;;28.40;90.30;;;;;;4221446;28;19931;-68
2022/10/31 04:09:53;;;;;;;;;;;28.50;90.50;;;;;;4221543;28;19924;-67
2022/10/31 04:11:57;;;;;;;;;;;28.50;90.50;;;;;;4211701;28;19974;-67
2022/10/31 04:14:16;;;;;;;;;;;28.60;90.50;;;;;;4211322;28;19928;-69
2022/10/31 04:16:23;;;;;;;;;;;28.60;90.30;;;;;;4211906;28;19947;-69
2022/10/31 04:18:30;;;;;;;;;;;28.60;90.40;;;;;;4209699;28;19928;-68
2022/10/31 04:20:37;;;;;;;;;;;28.70;90.40;;;;;;4211062;28;20398;-69
2022/10/31 04:22:44;;;;;;;;;;;28.60;89.10;;;;;;4242906;27;19923;-68
2022/10/31 04:24:52;;;;;;;;;;;28.70;88.90;;;;;;4212532;28;20316;-68
2022/10/31 04:26:56;;;;;;;;;;;28.70;88.90;;;;;;4220973;28;20336;-67
2022/10/31 04:29:02;;;;;;;;;;;28.70;88.30;;;;;;4217900;28;20034;-68
2022/10/31 04:31:13;;;;;;;;;;;28.80;88.60;;;;;;4219364;28;19959;-68
2022/10/31 04:33:19;;;;;;;;;;;28.80;89.10;;;;;;4235244;27;20355;-68
2022/10/31 04:35:27;;;;;;;;;;;29.00;88.30;;;;;;4221115;28;19924;-68
2022/10/31 04:37:42;;;;;;;;;;;29.00;87.90;;;;;;4230235;28;19927;-68
2022/10/31 04:39:48;;;;;;;;;;;29.10;88.50;;;;;;4178619;28;20008;-68
2022/10/31 04:42:14;;;;;;;;;;;29.20;87.30;;;;;;4208200;28;19969;-67
2022/10/31 04:44:21;;;;;;;;;;;29.10;86.50;;;;;;4199941;28;19928;-68
2022/10/31 04:46:29;;;;;;;;;;;28.90;86.10;;;;;;4200253;28;19935;-68
2022/10/31 04:48:35;;;;;;;;;;;28.80;86.00;;;;;;4211332;28;19928;-68
2022/10/31 04:50:42;;;;;;;;;;;28.80;85.90;;;;;;4228183;28;19928;-68
2022/10/31 04:52:48;;;;;;;;;;;28.60;85.90;;;;;;4211047;28;20405;-68
2022/10/31 04:55:00;;;;;;;;;;;28.70;86.30;;;;;;4211201;28;19924;-68
2022/10/31 04:57:32;;;;;;;;;;;29.00;85.50;;;;;;4211345;28;19924;-69
2022/10/31 04:59:39;;;;;;;;;;;28.90;85.50;;;;;;4209296;28;19928;-68
2022/10/31 05:01:49;;;;;;;;;;;28.90;85.80;;;;;;4209742;28;19928;-68
2022/10/31 05:04:10;;;;;;;;;;;29.00;85.90;;;;;;4208224;28;19938;-68
2022/10/31 05:06:16;;;;;;;;;;;29.10;85.00;;;;;;4208644;28;20023;-68
2022/10/31 05:08:23;;;;;;;;;;;29.20;84.30;;;;;;4209831;28;19936;-68
2022/10/31 05:10:33;;;;;;;;;;;29.50;84.80;;;;;;4209664;28;19932;-68
2022/10/31 05:12:54;;;;;;;;;;;29.50;84.40;;;;;;4209026;28;19939;-68
2022/10/31 05:15:14;;;;;;;;;;;29.50;83.20;;;;;;4211529;28;19927;-69
2022/10/31 05:17:49;;;;;;;;;;;29.50;83.80;;;;;;4207841;28;20011;-68
2022/10/31 05:20:08;;;;;;;;;;;29.60;83.60;;;;;;4211198;28;20022;-68
2022/10/31 05:22:38;;;;;;;;;;;29.60;84.40;;;;;;4211014;28;19963;-69
2022/10/31 05:24:48;;;;;;;;;;;29.50;84.60;;;;;;4192099;28;20460;-69
2022/10/31 05:26:55;;;;;;;;;;;29.30;84.70;;;;;;4209574;28;20381;-69
2022/10/31 05:29:03;;;;;;;;;;;29.60;85.20;;;;;;4210038;28;19964;-70
2022/10/31 05:31:11;;;;;;;;;;;29.40;84.60;;;;;;4193775;28;19944;-67
2022/10/31 05:33:17;;;;;;;;;;;29.50;84.70;;;;;;4210081;28;19928;-67
2022/10/31 05:35:35;;;;;;;;;;;29.60;85.90;;;;;;4210835;28;20613;-67
2022/10/31 05:37:54;;;;;;;;;;;29.70;84.30;;;;;;4210313;28;19924;-68
2022/10/31 05:40:01;;;;;;;;;;;29.70;83.60;;;;;;4210068;28;20386;-68
2022/10/31 05:42:11;;;;;;;;;;;29.80;84.30;;;;;;4194124;28;19935;-67
2022/10/31 05:44:21;;;;;;;;;;;29.80;83.80;;;;;;4208678;28;20450;-68
2022/10/31 05:46:40;;;;;;;;;;;29.90;84.00;;;;;;4208417;28;20275;-69
2022/10/31 05:48:59;;;;;;;;;;;29.80;83.30;;;;;;4210351;28;19975;-69
2022/10/31 05:51:18;;;;;;;;;;;29.80;84.30;;;;;;4211406;28;19932;-69
2022/10/31 05:53:25;;;;;;;;;;;30.00;83.90;;;;;;4207133;28;19954;-68
2022/10/31 05:55:33;;;;;;;;;;;30.10;83.10;;;;;;4220315;28;20488;-68
2022/10/31 05:57:46;;;;;;;;;;;29.90;82.40;;;;;;4228302;27;20658;-69
2022/10/31 05:59:55;;;;;;;;;;;29.70;83.30;;;;;;4243303;27;19935;-69
2022/10/31 06:02:05;;;;;;;;;;;29.60;82.90;;;;;;4241826;27;20016;-69
2022/10/31 06:04:27;;;;;;;;;;;29.50;82.50;;;;;;4211306;28;20406;-68
2022/10/31 06:06:34;;;;;;;;;;;29.60;82.10;;;;;;4207486;28;19928;-69
2022/10/31 06:08:40;;;;;;;;;;;29.80;82.60;;;;;;4207824;28;19928;-69
2022/10/31 06:10:55;;;;;;;;;;;29.90;82.60;;;;;;4207129;28;20525;-68
2022/10/31 06:13:19;;;;;;;;;;;30.00;82.20;;;;;;4208957;28;19924;-68
2022/10/31 06:15:40;;;;;;;;;;;29.90;81.20;;;;;;4205303;28;19928;-69
2022/10/31 06:17:57;;;;;;;;;;;30.00;81.30;;;;;;4209053;28;19963;-69
2022/10/31 06:20:03;;;;;;;;;;;30.00;82.40;;;;;;4207839;28;20651;-68
2022/10/31 06:22:19;;;;;;;;;;;30.00;82.60;;;;;;4211117;28;20451;-69
2022/10/31 06:24:25;;;;;;;;;;;30.00;83.70;;;;;;4213756;28;19928;-68
2022/10/31 06:26:30;;;;;;;;;;;30.10;83.80;;;;;;4214552;28;20413;-68
2022/10/31 06:28:34;;;;;;;;;;;30.00;83.10;;;;;;4212823;28;19951;-69
2022/10/31 06:30:53;;;;;;;;;;;30.00;82.40;;;;;;4213793;28;20023;-68
2022/10/31 06:33:03;;;;;;;;;;;30.10;83.00;;;;;;4196833;28;19936;-68
2022/10/31 06:35:12;;;;;;;;;;;30.20;81.80;;;;;;4213669;28;20391;-68
2022/10/31 06:37:20;;;;;;;;;;;30.20;82.30;;;;;;4212980;28;19932;-69
2022/10/31 06:39:25;;;;;;;;;;;30.20;82.70;;;;;;4211069;28;19942;-68
2022/10/31 06:41:36;;;;;;;;;;;30.20;82.90;;;;;;4210167;28;19928;-69
2022/10/31 06:43:47;;;;;;;;;;;30.10;83.00;;;;;;4211397;28;19979;-68
2022/10/31 06:46:04;;;;;;;;;;;30.00;83.10;;;;;;4212091;28;20023;-69
2022/10/31 06:48:16;;;;;;;;;;;29.90;83.00;;;;;;4196982;28;19935;-69
2022/10/31 06:50:37;;;;;;;;;;;30.00;82.60;;;;;;4212338;28;19935;-69
2022/10/31 06:52:43;;;;;;;;;;;30.20;82.20;;;;;;4210419;28;20015;-69
2022/10/31 06:54:50;;;;;;;;;;;30.30;82.50;;;;;;4213640;28;20379;-68
2022/10/31 06:57:00;;;;;;;;;;;30.30;81.60;;;;;;4212692;28;20015;-67
2022/10/31 06:59:06;;;;;;;;;;;30.20;82.40;;;;;;4210572;28;20406;-69
2022/10/31 07:01:33;;;;;;;;;;;30.00;81.70;;;;;;4212787;28;19928;-70
2022/10/31 07:03:45;;;;;;;;;;;29.90;83.00;;;;;;4213236;28;19956;-70
2022/10/31 07:05:51;;;;;;;;;;;29.90;82.70;;;;;;4212565;28;19928;-70
2022/10/31 07:07:57;;;;;;;;;;;29.80;82.30;;;;;;4213538;28;20340;-71
2022/10/31 07:10:07;;;;;;;;;;;29.90;81.60;;;;;;4210543;28;19951;-70
2022/10/31 07:12:27;;;;;;;;;;;30.10;82.50;;;;;;4246164;27;19961;-69
2022/10/31 07:14:33;;;;;;;;;;;30.20;81.70;;;;;;4213203;28;20610;-69
2022/10/31 07:16:42;;;;;;;;;;;30.30;81.50;;;;;;4210005;28;20019;-70
2022/10/31 07:18:51;;;;;;;;;;;30.30;80.60;;;;;;4211999;28;19924;-70
2022/10/31 07:20:56;;;;;;;;;;;30.20;81.20;;;;;;4195698;28;19944;-69
2022/10/31 07:23:06;;;;;;;;;;;30.20;80.80;;;;;;4243823;27;19930;-69
2022/10/31 07:25:12;;;;;;;;;;;30.30;80.70;;;;;;4212540;28;19936;-69
2022/10/31 07:27:28;;;;;;;;;;;30.40;81.20;;;;;;4211912;28;19932;-70
2022/10/31 07:29:37;;;;;;;;;;;30.50;81.20;;;;;;4212004;28;19928;-70
2022/10/31 07:31:46;;;;;;;;;;;30.50;79.80;;;;;;4212059;28;19925;-70
2022/10/31 07:33:56;;;;;;;;;;;30.50;80.20;;;;;;4212760;28;19934;-70
2022/10/31 07:36:04;;;;;;;;;;;30.50;79.90;;;;;;4210762;28;19985;-69
2022/10/31 07:38:12;;;;;;;;;;;30.40;80.20;;;;;;4211669;28;19936;-69
2022/10/31 07:40:17;;;;;;;;;;;30.40;80.70;;;;;;4195288;28;20431;-69
2022/10/31 07:42:23;;;;;;;;;;;30.50;81.20;;;;;;4210497;28;19928;-69
2022/10/31 07:44:29;;;;;;;;;;;30.50;80.80;;;;;;4212275;28;19932;-69
2022/10/31 07:46:48;;;;;;;;;;;30.60;79.80;;;;;;4210739;28;20271;-70
2022/10/31 07:49:08;;;;;;;;;;;30.70;80.50;;;;;;4211098;28;19934;-69
2022/10/31 07:51:26;;;;;;;;;;;30.70;80.30;;;;;;4212983;28;19928;-69
2022/10/31 07:53:50;;;;;;;;;;;30.80;79.80;;;;;;4210193;28;20434;-69
2022/10/31 07:56:00;;;;;;;;;;;30.80;80.50;;;;;;4211491;28;19978;-69
2022/10/31 07:58:06;;;;;;;;;;;30.80;81.30;;;;;;4211535;28;19928;-69
2022/10/31 08:00:17;;;;;;;;;;;30.60;81.20;;;;;;4211620;28;19934;-68
2022/10/31 08:02:41;;;;;;;;;;;30.60;80.90;;;;;;4209525;28;19932;-69
2022/10/31 08:05:06;;;;;;;;;;;30.40;79.70;;;;;;4211586;28;20355;-68
2022/10/31 08:07:35;;;;;;;;;;;30.30;80.10;;;;;;4203657;28;19925;-68
2022/10/31 08:09:49;;;;;;;;;;;30.30;80.80;;;;;;4228879;28;20024;-69
2022/10/31 08:12:01;;;;;;;;;;;30.40;80.70;;;;;;4195745;28;20015;-69
2022/10/31 08:14:06;;;;;;;;;;;30.40;80.30;;;;;;4212739;28;20600;-69
2022/10/31 08:16:14;;;;;;;;;;;30.50;80.80;;;;;;4212297;28;20494;-69
2022/10/31 08:18:29;;;;;;;;;;;30.40;80.30;;;;;;4195233;28;19929;-69
2022/10/31 08:20:34;;;;;;;;;;;30.40;80.70;;;;;;4195122;28;19937;-69
2022/10/31 08:22:41;;;;;;;;;;;30.30;80.60;;;;;;4212707;28;19990;-69
2022/10/31 08:24:46;;;;;;;;;;;30.30;81.00;;;;;;4195856;28;20403;-69
2022/10/31 08:26:50;;;;;;;;;;;30.30;82.40;;;;;;4196400;28;19934;-69
2022/10/31 08:29:00;;;;;;;;;;;30.30;82.40;;;;;;4196071;28;20015;-68
2022/10/31 08:31:09;;;;;;;;;;;30.30;81.80;;;;;;4195017;28;19928;-69
2022/10/31 08:33:17;;;;;;;;;;;30.20;81.50;;;;;;4201011;28;19967;-69
2022/10/31 08:35:45;;;;;;;;;;;30.20;81.20;;;;;;4230099;28;20425;-69
2022/10/31 08:38:12;;;;;;;;;;;30.20;81.10;;;;;;4229383;28;20305;-69
2022/10/31 08:40:17;;;;;;;;;;;30.10;81.40;;;;;;4227736;28;19924;-70
2022/10/31 08:42:28;;;;;;;;;;;30.00;82.00;;;;;;4228522;28;19931;-70
2022/10/31 08:44:32;;;;;;;;;;;30.00;83.10;;;;;;4228379;28;19924;-70
2022/10/31 08:46:39;;;;;;;;;;;30.00;84.10;;;;;;4229370;28;20654;-69
2022/10/31 08:48:46;;;;;;;;;;;30.00;84.40;;;;;;4221066;28;19932;-69
2022/10/31 08:50:55;;;;;;;;;;;30.10;84.60;;;;;;4195030;28;20671;-69
2022/10/31 08:53:03;;;;;;;;;;;30.20;84.70;;;;;;4200930;28;19928;-68
2022/10/31 08:55:11;;;;;;;;;;;30.30;85.30;;;;;;4211903;28;19928;-69
2022/10/31 08:57:22;;;;;;;;;;;30.30;85.20;;;;;;4213009;28;19967;-69
2022/10/31 08:59:27;;;;;;;;;;;30.30;85.50;;;;;;4210645;28;19971;-68
2022/10/31 09:01:55;;;;;;;;;;;30.40;85.70;;;;;;4212211;28;19939;-69
2022/10/31 09:04:00;;;;;;;;;;;30.40;85.70;;;;;;4212115;28;19981;-69
2022/10/31 09:06:08;;;;;;;;;;;30.40;85.80;;;;;;4211730;28;19932;-69
2022/10/31 09:08:14;;;;;;;;;;;30.40;85.80;;;;;;4210944;28;19928;-69
2022/10/31 09:10:21;;;;;;;;;;;30.40;85.20;;;;;;4227597;28;19988;-69
2022/10/31 09:12:25;;;;;;;;;;;30.30;85.20;;;;;;4229557;28;20534;-69
2022/10/31 09:14:31;;;;;;;;;;;30.30;85.30;;;;;;4229713;28;19923;-69
2022/10/31 09:16:49;;;;;;;;;;;30.30;85.30;;;;;;4228951;28;20071;-69
2022/10/31 09:18:58;;;;;;;;;;;30.20;85.60;;;;;;4192669;28;19931;-68
2022/10/31 09:21:05;;;;;;;;;;;30.20;86.10;;;;;;4193188;28;19929;-66
2022/10/31 09:23:10;;;;;;;;;;;30.10;86.20;;;;;;4193796;28;19931;-70
2022/10/31 09:25:14;;;;;;;;;;;30.10;86.50;;;;;;4210423;28;20014;-68
2022/10/31 09:27:27;;;;;;;;;;;30.00;86.80;;;;;;4176712;28;20300;-68
2022/10/31 09:29:36;;;;;;;;;;;30.00;87.30;;;;;;4209097;28;20761;-68
2022/10/31 09:31:43;;;;;;;;;;;30.00;87.50;;;;;;4192768;28;19932;-69
2022/10/31 09:34:11;;;;;;;;;;;30.00;87.70;;;;;;4176650;28;19963;-68
2022/10/31 09:36:23;;;;;;;;;;;30.00;87.70;;;;;;4160055;28;19932;-68
2022/10/31 09:38:28;;;;;;;;;;;30.00;87.60;;;;;;4176181;28;19929;-70
2022/10/31 09:40:41;;;;;;;;;;;29.90;87.60;;;;;;4192931;28;20550;-68
2022/10/31 09:42:53;;;;;;;;;;;29.90;88.30;;;;;;4160564;28;20288;-68
2022/10/31 09:45:01;;;;;;;;;;;29.80;88.20;;;;;;4173040;28;20449;-69
2022/10/31 09:47:23;;;;;;;;;;;29.80;88.40;;;;;;4176273;28;19948;-69
2022/10/31 09:50:07;;;;;;;;;;;29.70;88.90;;;;;;4197647;28;19924;-69
2022/10/31 09:52:16;;;;;;;;;;;29.70;89.00;;;;;;4210566;28;19928;-69
2022/10/31 09:54:35;;;;;;;;;;;29.70;89.20;;;;;;4210103;28;19935;-68
2022/10/31 09:56:40;;;;;;;;;;;29.60;89.60;;;;;;4219776;28;19931;-68
2022/10/31 09:58:47;;;;;;;;;;;29.60;90.40;;;;;;4235343;27;19928;-68
2022/10/31 10:00:52;;;;;;;;;;;29.60;90.50;;;;;;4209130;28;19939;-68
2022/10/31 10:03:09;;;;;;;;;;;29.50;90.30;;;;;;4209918;28;19935;-69
2022/10/31 10:05:23;;;;;;;;;;;29.40;90.20;;;;;;4235664;27;19935;-69
2022/10/31 10:07:34;;;;;;;;;;;29.40;90.40;;;;;;4236242;27;20015;-69
2022/10/31 10:09:52;;;;;;;;;;;29.30;90.30;;;;;;4209124;28;19935;-69
2022/10/31 10:12:24;;;;;;;;;;;29.30;90.30;;;;;;4209119;28;20007;-69
2022/10/31 10:14:35;;;;;;;;;;;29.20;90.30;;;;;;4209268;28;20018;-69
2022/10/31 10:16:42;;;;;;;;;;;29.20;90.30;;;;;;4218459;28;19974;-69
2022/10/31 10:19:00;;;;;;;;;;;29.10;90.40;;;;;;4210758;28;20469;-69
2022/10/31 10:21:18;;;;;;;;;;;29.00;90.40;;;;;;4210455;28;20372;-69
2022/10/31 10:23:36;;;;;;;;;;;29.00;90.40;;;;;;4210679;28;19985;-68
2022/10/31 10:25:42;;;;;;;;;;;29.00;90.50;;;;;;4209979;28;20367;-69
2022/10/31 10:27:49;;;;;;;;;;;28.90;90.60;;;;;;4190744;28;20516;-69
2022/10/31 10:29:55;;;;;;;;;;;28.90;90.70;;;;;;4190409;28;19928;-69
2022/10/31 10:32:01;;;;;;;;;;;28.80;90.80;;;;;;4176151;28;19932;-69
2022/10/31 10:34:05;;;;;;;;;;;28.80;90.80;;;;;;4192891;28;20015;-69
2022/10/31 10:36:14;;;;;;;;;;;28.70;91.40;;;;;;4192726;28;19981;-70
2022/10/31 10:38:31;;;;;;;;;;;28.60;91.40;;;;;;4190857;28;19992;-69
2022/10/31 10:40:36;;;;;;;;;;;28.50;91.60;;;;;;4191813;28;20595;-70
2022/10/31 10:49:45;;;;;;;;;;;28.40;91.70;;;;;;4139010;28;19988;-70
2022/10/31 10:52:00;;;;;;;;;;;28.40;91.60;;;;;;4124641;28;19968;-70
2022/10/31 10:54:40;;;;;;;;;;;28.40;91.60;;;;;;4141363;28;20319;-70
2022/10/31 10:56:55;;;;;;;;;;;28.40;91.60;;;;;;4140460;28;19957;-70
2022/10/31 10:59:02;;;;;;;;;;;28.40;91.70;;;;;;4139779;28;19928;-69
2022/10/31 11:01:10;;;;;;;;;;;28.30;91.70;;;;;;4172516;28;20107;-69
2022/10/31 11:03:17;;;;;;;;;;;28.20;91.90;;;;;;4172683;28;19939;-69
2022/10/31 11:05:25;;;;;;;;;;;28.10;92.00;;;;;;4173154;28;19932;-69
2022/10/31 11:07:39;;;;;;;;;;;28.10;92.20;;;;;;4173287;28;19936;-70
2022/10/31 11:09:43;;;;;;;;;;;28.10;92.30;;;;;;4158882;28;19936;-70
2022/10/31 11:11:49;;;;;;;;;;;28.00;92.40;;;;;;4175874;28;19929;-70
2022/10/31 11:14:00;;;;;;;;;;;28.00;92.70;;;;;;4192295;28;19928;-69
2022/10/31 11:16:04;;;;;;;;;;;28.00;92.80;;;;;;4210541;28;20035;-70
2022/10/31 11:18:12;;;;;;;;;;;27.90;92.90;;;;;;4210766;28;19928;-70
2022/10/31 11:20:17;;;;;;;;;;;27.80;93.00;;;;;;4210983;28;20608;-69
2022/10/31 11:22:21;;;;;;;;;;;27.80;93.10;;;;;;4211442;28;20010;-69
2022/10/31 11:24:27;;;;;;;;;;;27.80;93.20;;;;;;4213981;28;19932;-71
2022/10/31 11:26:34;;;;;;;;;;;27.70;93.30;;;;;;4211542;28;19928;-70
2022/10/31 11:28:39;;;;;;;;;;;27.70;93.40;;;;;;4210711;28;19977;-70
2022/10/31 11:30:53;;;;;;;;;;;27.70;93.50;;;;;;4211168;28;19981;-70
2022/10/31 11:32:57;;;;;;;;;;;27.70;93.50;;;;;;4211689;28;19931;-69
2022/10/31 11:35:03;;;;;;;;;;;27.60;93.50;;;;;;4212288;28;19924;-69
2022/10/31 11:37:27;;;;;;;;;;;27.60;93.50;;;;;;4212604;28;19970;-69
2022/10/31 11:39:31;;;;;;;;;;;27.60;93.60;;;;;;4212113;28;19963;-69
2022/10/31 11:41:38;;;;;;;;;;;27.60;93.60;;;;;;4211842;28;19939;-70
2022/10/31 11:43:50;;;;;;;;;;;27.50;93.70;;;;;;4210622;28;20369;-69
2022/10/31 11:45:54;;;;;;;;;;;27.40;93.80;;;;;;4211751;28;19931;-70
2022/10/31 11:48:00;;;;;;;;;;;27.40;93.80;;;;;;4210773;28;19928;-70
2022/10/31 11:50:10;;;;;;;;;;;27.40;93.70;;;;;;4212030;28;19974;-70
2022/10/31 11:52:14;;;;;;;;;;;27.40;93.70;;;;;;4211385;28;20335;-68
2022/10/31 11:54:20;;;;;;;;;;;27.40;93.80;;;;;;4210783;28;19928;-69
2022/10/31 11:56:37;;;;;;;;;;;27.40;93.90;;;;;;4209453;28;19932;-68
2022/10/31 11:58:41;;;;;;;;;;;27.30;93.90;;;;;;4207351;28;19928;-69
2022/10/31 12:00:48;;;;;;;;;;;27.30;93.90;;;;;;4210576;28;19928;-69
2022/10/31 12:03:06;;;;;;;;;;;27.40;94.00;;;;;;4213044;28;20019;-69
2022/10/31 12:05:24;;;;;;;;;;;27.30;94.00;;;;;;4212616;28;20014;-69
2022/10/31 12:07:28;;;;;;;;;;;27.30;94.20;;;;;;4241891;27;19933;-67
2022/10/31 12:09:37;;;;;;;;;;;27.30;94.30;;;;;;4212462;28;20078;-69
2022/10/31 12:11:46;;;;;;;;;;;27.20;94.50;;;;;;4211575;28;20314;-70
2022/10/31 12:13:50;;;;;;;;;;;27.20;94.60;;;;;;4213225;28;19928;-70
2022/10/31 12:15:56;;;;;;;;;;;27.20;94.80;;;;;;4213027;28;19928;-70
2022/10/31 12:18:12;;;;;;;;;;;27.20;94.80;;;;;;4205733;28;19962;-71
2022/10/31 12:20:28;;;;;;;;;;;27.10;94.90;;;;;;4208667;28;19932;-70
2022/10/31 12:22:44;;;;;;;;;;;27.10;95.10;;;;;;4212650;28;19984;-70
2022/10/31 12:24:51;;;;;;;;;;;27.00;95.30;;;;;;4212753;28;20390;-70
2022/10/31 12:27:07;;;;;;;;;;;27.00;95.40;;;;;;4209746;28;20015;-72
2022/10/31 12:29:18;;;;;;;;;;;27.00;95.60;;;;;;4211257;28;19928;-71
2022/10/31 12:31:26;;;;;;;;;;;27.00;95.80;;;;;;4209865;28;19932;-70
2022/10/31 12:33:43;;;;;;;;;;;27.00;96.00;;;;;;4211694;28;19932;-70
2022/10/31 12:35:56;;;;;;;;;;;26.90;96.10;;;;;;4209869;28;19924;-68
2022/10/31 12:38:08;;;;;;;;;;;26.90;96.20;;;;;;4206978;28;19928;-69
2022/10/31 12:40:24;;;;;;;;;;;26.90;96.40;;;;;;4208115;28;19962;-69
2022/10/31 12:42:41;;;;;;;;;;;26.90;96.40;;;;;;4210530;28;20003;-70
2022/10/31 12:44:55;;;;;;;;;;;26.90;96.40;;;;;;4209522;28;19935;-68
2022/10/31 12:47:11;;;;;;;;;;;26.90;96.40;;;;;;4211654;28;19924;-69
2022/10/31 12:49:27;;;;;;;;;;;26.80;96.60;;;;;;4212395;28;19928;-68